Time,TemperatureF,DewpointF,PressureIn,WindDirection,WindDirectionDegrees,WindSpeedMPH,WindSpeedGustMPH,Humidity,HourlyPrecipIn,Conditions,Clouds,dailyrainin,SoftwareType,DateUTC
2013-03-30 00:00:00,59.0,55.8,29.91,SE,135,0.0,4.0,89,0.00,,,0.00,Weather View 32 v70,2013-03-30 07:00:00,
2013-03-30 00:07:00,59.0,55.8,29.91,SE,135,0.0,4.0,89,0.00,,,0.00,Weather View 32 v70,2013-03-30 07:07:00,
2013-03-30 00:30:00,60.0,55.8,29.91,SE,135,0.0,4.0,86,0.00,,,0.00,Weather View 32 v70,2013-03-30 07:30:00,
2013-03-30 01:00:00,60.0,55.8,29.90,SE,135,0.0,0.0,86,0.00,,,0.00,Weather View 32 v70,2013-03-30 08:00:00,
2013-03-30 01:08:00,60.0,55.8,29.90,SE,135,0.0,0.0,86,0.00,,,0.00,Weather View 32 v70,2013-03-30 08:08:00,
2013-03-30 01:30:00,60.0,55.8,29.90,ESE,112,0.0,0.0,86,0.00,,,0.00,Weather View 32 v70,2013-03-30 08:30:00,
2013-03-30 02:00:00,58.0,54.5,29.89,SSE,157,0.0,2.0,88,0.00,,,0.00,Weather View 32 v70,2013-03-30 09:00:00,
2013-03-30 02:08:00,58.0,54.5,29.89,SSE,157,0.0,2.0,88,0.00,,,0.00,Weather View 32 v70,2013-03-30 09:08:00,
2013-03-30 02:30:00,58.0,54.5,29.89,ESE,112,0.0,2.0,88,0.00,,,0.00,Weather View 32 v70,2013-03-30 09:30:00,
2013-03-30 03:00:00,57.0,53.5,29.89,ESE,112,0.0,3.0,88,0.00,,,0.00,Weather View 32 v70,2013-03-30 10:00:00,
2013-03-30 03:09:00,57.0,53.5,29.89,ESE,112,0.0,3.0,88,0.00,,,0.00,Weather View 32 v70,2013-03-30 10:09:00,
2013-03-30 03:30:00,57.0,53.5,29.88,ESE,112,0.0,3.0,88,0.00,,,0.00,Weather View 32 v70,2013-03-30 10:30:00,
2013-03-30 04:00:00,57.0,53.5,29.87,SE,135,0.0,1.0,88,0.00,,,0.00,Weather View 32 v70,2013-03-30 11:00:00,
2013-03-30 04:09:00,57.0,53.5,29.87,SE,135,0.0,1.0,88,0.00,,,0.00,Weather View 32 v70,2013-03-30 11:09:00,
2013-03-30 04:30:00,57.0,53.5,29.87,SE,135,0.0,0.0,88,0.00,,,0.00,Weather View 32 v70,2013-03-30 11:30:00,
2013-03-30 05:00:00,57.0,53.8,29.87,SW,225,0.0,6.0,89,0.00,,,0.00,Weather View 32 v70,2013-03-30 12:00:00,
2013-03-30 05:30:00,55.0,50.9,29.87,SSW,202,0.0,6.0,86,0.00,,,0.00,Weather View 32 v70,2013-03-30 12:30:00,
2013-03-30 06:00:00,55.0,50.6,29.87,SSW,202,0.0,3.0,85,0.00,,,0.00,Weather View 32 v70,2013-03-30 13:00:00,
2013-03-30 06:30:00,55.0,49.6,29.87,ENE,67,0.0,3.0,82,0.00,,,0.00,Weather View 32 v70,2013-03-30 13:30:00,
2013-03-30 07:00:00,53.0,39.9,29.88,ESE,112,0.0,3.0,61,0.00,,,0.00,Weather View 32 v70,2013-03-30 14:00:00,
2013-03-30 07:30:00,55.0,48.3,29.89,East,90,1.0,7.0,78,0.00,,,0.00,Weather View 32 v70,2013-03-30 14:30:00,
2013-03-30 08:00:00,59.0,54.2,29.93,SSE,157,4.0,7.0,84,0.00,,,0.00,Weather View 32 v70,2013-03-30 15:00:00,
2013-03-30 08:30:00,62.0,56.4,29.95,ESE,112,6.0,9.0,82,0.00,,,0.00,Weather View 32 v70,2013-03-30 15:30:00,
2013-03-30 09:00:00,65.0,55.7,29.97,South,180,7.0,9.0,72,0.00,,,0.00,Weather View 32 v70,2013-03-30 16:00:00,
2013-03-30 09:30:00,67.0,54.8,29.98,SE,135,8.0,10.0,65,0.00,,,0.00,Weather View 32 v70,2013-03-30 16:30:00,
2013-03-30 10:00:00,69.0,54.5,29.99,SSE,157,8.0,11.0,60,0.00,,,0.00,Weather View 32 v70,2013-03-30 17:00:00,
2013-03-30 10:30:00,73.0,54.3,30.01,South,180,5.0,11.0,52,0.00,,,0.00,Weather View 32 v70,2013-03-30 17:30:00,
2013-03-30 11:00:00,76.0,54.8,30.02,SW,225,0.0,10.0,48,0.00,,,0.00,Weather View 32 v70,2013-03-30 18:00:00,
2013-03-30 11:30:00,77.0,53.3,30.03,SW,225,0.0,9.0,44,0.00,,,0.00,Weather View 32 v70,2013-03-30 18:30:00,
2013-03-30 12:00:00,78.0,53.6,30.03,NNW,337,0.0,9.0,43,0.00,,,0.00,Weather View 32 v70,2013-03-30 19:00:00,
2013-03-30 12:30:00,81.0,55.7,30.03,West,270,0.0,5.0,42,0.00,,,0.00,Weather View 32 v70,2013-03-30 19:30:00,
2013-03-30 13:00:00,80.0,54.8,30.01,NNW,337,0.0,4.0,42,0.00,,,0.00,Weather View 32 v70,2013-03-30 20:00:00,
2013-03-30 13:30:00,81.0,53.6,30.00,SSW,202,0.0,0.0,39,0.00,,,0.00,Weather View 32 v70,2013-03-30 20:30:00,
2013-03-30 14:00:00,81.0,52.9,29.99,NNE,22,0.0,0.0,38,0.00,,,0.00,Weather View 32 v70,2013-03-30 21:00:00,
2013-03-30 14:30:00,83.0,51.6,29.98,East,90,0.0,0.0,34,0.00,,,0.00,Weather View 32 v70,2013-03-30 21:30:00,
2013-03-30 15:00:00,84.0,50.9,29.97,WNW,292,0.0,0.0,32,0.00,,,0.00,Weather View 32 v70,2013-03-30 22:00:00,
2013-03-30 15:30:00,83.0,51.6,29.96,WNW,292,0.0,8.0,34,0.00,,,0.00,Weather View 32 v70,2013-03-30 22:30:00,
2013-03-30 16:00:00,83.0,50.8,29.95,NW,315,6.0,11.0,33,0.00,,,0.00,Weather View 32 v70,2013-03-30 23:00:00,
2013-03-30 16:30:00,83.0,50.8,29.95,NW,315,1.0,11.0,33,0.00,,,0.00,Weather View 32 v70,2013-03-30 23:30:00,
2013-03-30 17:00:00,82.0,50.0,29.93,NW,315,6.0,14.0,33,0.00,,,0.00,Weather View 32 v70,2013-03-31 00:00:00,
2013-03-30 17:30:00,82.0,50.0,29.92,WNW,292,0.0,14.0,33,0.00,,,0.00,Weather View 32 v70,2013-03-31 00:30:00,
2013-03-30 18:00:00,81.0,49.1,29.91,SSW,202,5.0,10.0,33,0.00,,,0.00,Weather View 32 v70,2013-03-31 01:00:00,
2013-03-30 18:30:00,80.0,48.2,29.90,West,270,6.0,10.0,33,0.00,,,0.00,Weather View 32 v70,2013-03-31 01:30:00,
2013-03-30 19:00:00,78.0,47.3,29.89,WSW,247,1.0,10.0,34,0.00,,,0.00,Weather View 32 v70,2013-03-31 02:00:00,
2013-03-30 19:30:00,72.0,48.2,29.89,WNW,292,2.0,16.0,43,0.00,,,0.00,Weather View 32 v70,2013-03-31 02:30:00,
2013-03-30 20:00:00,70.0,47.6,29.88,WSW,247,9.0,16.0,45,0.00,,,0.00,Weather View 32 v70,2013-03-31 03:00:00,
2013-03-30 20:30:00,68.0,47.5,29.89,West,270,0.0,16.0,48,0.00,,,0.00,Weather View 32 v70,2013-03-31 03:30:00,
2013-03-30 21:00:00,65.0,47.4,29.91,SSW,202,0.0,16.0,53,0.00,,,0.00,Weather View 32 v70,2013-03-31 04:00:00,
2013-03-30 21:30:00,65.0,48.4,29.93,ENE,67,0.0,9.0,55,0.00,,,0.00,Weather View 32 v70,2013-03-31 04:30:00,
2013-03-30 22:00:00,64.0,48.9,29.94,South,180,0.0,6.0,58,0.00,,,0.00,Weather View 32 v70,2013-03-31 05:00:00,
2013-03-30 22:30:00,63.0,49.7,29.94,SSE,157,0.0,6.0,62,0.00,,,0.00,Weather View 32 v70,2013-03-31 05:30:00,
2013-03-30 23:00:00,63.0,50.6,29.93,South,180,0.0,4.0,64,0.00,,,0.00,Weather View 32 v70,2013-03-31 06:00:00,
2013-03-30 23:30:00,63.0,51.0,29.94,South,180,0.0,3.0,65,0.00,,,0.00,Weather View 32 v70,2013-03-31 06:30:00,